Time;durP1;ratioP1;P1;durP2;ratioP2;P2;SDS_P1;SDS_P2;PMS_P1;PMS_P2;Temp;Humidity;BMP_temperature;BMP_pressure;BME280_temperature;BME280_humidity;BME280_pressure;Samples;Min_cycle;Max_cycle;Signal;HPM_P1;HPM_P2
2023/02/02 00:00:27;;;;;;;4.13;1.77;;;;;;;6.13;84.07;98743.38;5012189;28;20220;-81
2023/02/02 00:02:54;;;;;;;5.73;2.00;;;;;;;6.13;83.46;98735.50;5012258;28;20219;-81
2023/02/02 00:05:20;;;;;;;6.70;1.80;;;;;;;6.11;83.80;98746.03;5012152;28;20606;-80
2023/02/02 00:07:47;;;;;;;6.13;1.93;;;;;;;6.08;84.39;98735.69;5012324;28;20215;-80
2023/02/02 00:10:13;;;;;;;6.90;2.00;;;;;;;6.12;84.23;98739.03;5012167;28;20212;-81
2023/02/02 00:12:40;;;;;;;4.17;1.73;;;;;;;6.10;84.27;98740.88;5012140;28;20332;-80
2023/02/02 00:15:07;;;;;;;4.90;1.67;;;;;;;6.08;84.76;98740.94;5012014;28;20232;-79
2023/02/02 00:17:35;;;;;;;6.57;2.00;;;;;;;6.12;84.73;98737.25;5012154;28;20303;-81
2023/02/02 00:20:02;;;;;;;8.37;2.23;;;;;;;6.11;85.50;98737.34;5011609;28;20235;-81
2023/02/02 00:22:28;;;;;;;7.30;2.57;;;;;;;6.11;85.39;98738.19;5012380;28;20211;-81
2023/02/02 00:24:54;;;;;;;4.57;2.10;;;;;;;6.07;85.84;98730.50;5016156;28;20232;-81
2023/02/02 00:27:21;;;;;;;5.40;1.70;;;;;;;6.12;85.62;98737.25;5016350;28;20219;-79
2023/02/02 00:29:48;;;;;;;7.87;2.30;;;;;;;6.10;85.65;98741.72;5016942;28;20209;-79
2023/02/02 00:32:14;;;;;;;5.13;2.03;;;;;;;6.09;86.29;98740.00;5012216;28;20351;-81
2023/02/02 00:34:42;;;;;;;2.90;1.80;;;;;;;6.08;85.68;98743.56;5011566;28;20232;-81
2023/02/02 00:37:09;;;;;;;11.63;2.30;;;;;;;6.06;86.64;98745.41;5011873;28;20212;-83
2023/02/02 00:39:35;;;;;;;4.53;1.80;;;;;;;6.09;86.29;98749.66;5011434;28;20208;-82
2023/02/02 00:42:02;;;;;;;5.30;1.70;;;;;;;6.08;86.76;98747.94;5011836;28;20227;-81
2023/02/02 00:47:12;;;;;;;5.40;1.97;;;;;;;6.08;86.02;98748.81;5011896;28;20211;-82
2023/02/02 00:49:39;;;;;;;3.47;1.83;;;;;;;6.10;86.37;98741.72;5011749;28;20207;-81
2023/02/02 00:52:07;;;;;;;7.67;1.90;;;;;;;6.11;85.81;98738.19;5011709;28;20239;-82
2023/02/02 00:54:34;;;;;;;5.50;2.50;;;;;;;6.11;86.33;98740.78;5011312;28;20215;-82
2023/02/02 00:57:00;;;;;;;4.70;2.03;;;;;;;6.09;86.72;98731.28;5011889;28;20212;-80
2023/02/02 00:59:27;;;;;;;7.03;2.07;;;;;;;6.09;86.69;98740.00;5011022;28;20211;-80
2023/02/02 01:01:53;;;;;;;4.27;1.90;;;;;;;6.09;86.93;98732.16;5011674;28;20236;-80
2023/02/02 01:04:20;;;;;;;6.57;1.80;;;;;;;6.13;87.23;98733.72;5011639;28;20207;-80
2023/02/02 01:06:46;;;;;;;7.27;2.07;;;;;;;6.13;87.63;98738.97;5011568;28;20208;-80
2023/02/02 01:09:14;;;;;;;6.23;1.83;;;;;;;6.11;87.88;98738.19;5010987;28;20744;-79
2023/02/02 01:11:41;;;;;;;5.50;2.00;;;;;;;6.16;88.24;98738.84;5011147;28;20703;-79
2023/02/02 01:14:07;;;;;;;6.00;2.00;;;;;;;6.13;88.41;98738.97;5011206;28;20220;-80
2023/02/02 01:16:34;;;;;;;4.27;1.50;;;;;;;6.14;88.30;98745.94;5011509;28;20229;-80
2023/02/02 01:19:00;;;;;;;3.33;1.73;;;;;;;6.14;87.78;98734.56;5011282;28;20221;-80
2023/02/02 01:21:27;;;;;;;4.97;1.77;;;;;;;6.18;88.67;98752.75;5011556;28;20687;-80
2023/02/02 01:23:53;;;;;;;3.13;1.40;;;;;;;6.20;89.59;98745.69;5011411;28;20242;-80
2023/02/02 01:26:21;;;;;;;4.87;1.60;;;;;;;6.16;91.14;98772.13;5011317;28;20326;-80
2023/02/02 01:28:48;;;;;;;3.17;1.70;;;;;;;6.12;92.61;98760.88;5011048;28;20206;-80
2023/02/02 01:31:20;;;;;;;3.70;1.63;;;;;;;6.09;93.07;98750.50;5011505;28;20236;-80
2023/02/02 01:33:48;;;;;;;4.83;2.10;;;;;;;6.11;93.07;98761.78;5011266;28;20214;-80
2023/02/02 01:36:22;;;;;;;3.77;1.90;;;;;;;6.12;92.91;98755.63;5012670;28;20233;-79
2023/02/02 01:38:50;;;;;;;5.67;2.10;;;;;;;6.10;94.24;98756.63;5014809;28;20207;-80
2023/02/02 01:41:19;;;;;;;4.40;1.90;;;;;;;6.05;94.17;98755.97;5014762;28;20219;-79
2023/02/02 01:43:57;;;;;;;5.83;2.43;;;;;;;6.07;93.53;98764.63;5015104;28;20580;-79
2023/02/02 01:46:26;;;;;;;6.93;2.23;;;;;;;6.08;94.38;98764.56;5014847;28;20245;-81
2023/02/02 01:48:58;;;;;;;7.50;2.13;;;;;;;6.09;94.56;98765.38;5014676;28;20205;-81
2023/02/02 01:51:31;;;;;;;6.80;2.30;;;;;;;6.03;94.45;98771.75;5014756;28;20234;-80
2023/02/02 01:53:59;;;;;;;6.43;2.50;;;;;;;6.03;95.31;98766.50;5015021;28;20216;-81
2023/02/02 01:56:31;;;;;;;6.87;2.50;;;;;;;6.00;95.88;98771.91;5014582;28;20238;-81
2023/02/02 01:58:59;;;;;;;5.00;2.17;;;;;;;6.02;95.30;98759.56;5014458;28;20215;-81
2023/02/02 02:01:27;;;;;;;5.40;2.30;;;;;;;6.00;96.00;98769.28;5014816;28;20216;-80
2023/02/02 02:03:54;;;;;;;5.93;2.37;;;;;;;6.03;96.12;98755.16;5014569;28;20226;-79
2023/02/02 02:06:21;;;;;;;5.80;2.10;;;;;;;6.03;96.13;98752.53;5014374;28;20239;-80
2023/02/02 02:08:52;;;;;;;6.90;2.83;;;;;;;5.99;96.33;98751.81;5014386;28;20237;-80
2023/02/02 02:11:19;;;;;;;10.30;2.93;;;;;;;6.01;96.39;98746.50;5014366;28;20229;-80
2023/02/02 02:16:43;;;;;;;9.00;2.90;;;;;;;6.04;97.38;98746.38;5014138;28;20301;-81
2023/02/02 02:19:27;;;;;;;6.50;2.43;;;;;;;6.05;97.11;98748.91;5014226;28;20212;-81
2023/02/02 02:28:23;;;;;;;6.63;2.47;;;;;;;6.01;98.39;98760.47;5014065;28;20588;-79
2023/02/02 02:31:46;;;;;;;6.13;2.90;;;;;;;6.02;98.39;98763.94;5013770;28;20209;-81
2023/02/02 02:34:18;;;;;;;9.83;3.33;;;;;;;6.01;99.57;98757.84;4972184;28;20216;-80
2023/02/02 02:36:50;;;;;;;6.17;2.20;;;;;;;6.01;100.00;98757.84;5014067;28;20235;-83
2023/02/02 02:39:22;;;;;;;7.83;2.70;;;;;;;6.02;100.00;98754.31;5014120;28;20212;-80
2023/02/02 02:41:53;;;;;;;4.30;2.00;;;;;;;6.05;100.00;98745.47;5013743;28;20260;-80
2023/02/02 02:44:22;;;;;;;10.77;2.30;;;;;;;6.04;99.97;98755.09;5014001;28;20209;-79
2023/02/02 02:46:50;;;;;;;5.10;2.23;;;;;;;6.03;99.38;98752.53;5013214;28;20209;-80
2023/02/02 02:49:18;;;;;;;8.90;2.13;;;;;;;6.01;99.80;98754.38;5012749;28;20220;-79
2023/02/02 02:51:47;;;;;;;6.60;2.67;;;;;;;5.99;99.82;98751.81;5013465;28;20763;-80
2023/02/02 02:54:17;;;;;;;7.57;2.60;;;;;;;6.00;100.00;98748.28;5013450;28;20751;-80
2023/02/02 02:57:03;;;;;;;5.97;2.80;;;;;;;6.02;99.56;98756.94;5014044;28;20268;-80
2023/02/02 02:59:39;;;;;;;7.80;2.23;;;;;;;6.00;99.74;98756.16;5013294;28;20219;-80
2023/02/02 03:02:21;;;;;;;9.07;2.87;;;;;;;6.01;100.00;98757.00;5013434;28;20205;-79
2023/02/02 03:05:01;;;;;;;5.23;2.17;;;;;;;6.05;100.00;98762.03;5013905;28;20607;-79
2023/02/02 03:07:33;;;;;;;4.97;2.20;;;;;;;6.00;100.00;98764.03;5013307;28;20748;-81
2023/02/02 03:10:02;;;;;;;7.37;2.87;;;;;;;6.02;100.00;98763.94;5013124;28;20308;-79
2023/02/02 03:12:28;;;;;;;6.60;2.17;;;;;;;6.02;100.00;98754.31;5013232;28;20236;-81
2023/02/02 03:14:55;;;;;;;6.70;2.63;;;;;;;6.05;100.00;98748.91;5013021;28;20729;-80
2023/02/02 03:17:22;;;;;;;10.50;2.60;;;;;;;6.01;100.00;98751.75;5013366;28;20214;-80
2023/02/02 03:19:49;;;;;;;11.30;2.50;;;;;;;6.00;100.00;98744.78;5013072;28;20218;-80
2023/02/02 03:22:16;;;;;;;5.87;2.13;;;;;;;6.03;100.00;98750.78;5012994;28;20677;-81
2023/02/02 03:24:42;;;;;;;5.53;2.57;;;;;;;6.04;100.00;98749.84;5012894;28;20728;-80
2023/02/02 03:27:09;;;;;;;4.33;2.00;;;;;;;6.09;100.00;98740.00;5012962;28;20567;-79
2023/02/02 03:29:36;;;;;;;6.03;1.93;;;;;;;6.07;100.00;98744.50;5012554;28;20217;-79
2023/02/02 03:32:03;;;;;;;6.60;2.17;;;;;;;6.08;100.00;98746.19;5013135;28;20577;-80
2023/02/02 03:34:30;;;;;;;6.30;2.17;;;;;;;6.04;100.00;98741.97;5012944;28;20595;-80
2023/02/02 03:36:58;;;;;;;4.30;1.77;;;;;;;6.04;100.00;98736.72;5012915;28;20202;-80
2023/02/02 03:39:24;;;;;;;5.07;2.27;;;;;;;6.07;99.76;98736.63;5012772;28;20227;-81
2023/02/02 03:41:50;;;;;;;5.27;2.30;;;;;;;6.06;99.67;98750.66;5012989;28;20208;-80
2023/02/02 03:44:17;;;;;;;4.93;2.30;;;;;;;6.06;99.61;98742.78;5012997;28;20248;-81
2023/02/02 03:46:43;;;;;;;8.50;2.80;;;;;;;6.04;99.92;98755.09;5013231;28;20241;-83
2023/02/02 03:49:10;;;;;;;5.10;2.17;;;;;;;6.04;100.00;98752.47;5013418;28;20215;-81
2023/02/02 03:51:37;;;;;;;8.03;2.20;;;;;;;6.09;100.00;98757.53;5018950;28;20206;-81
2023/02/02 03:54:04;;;;;;;7.87;2.70;;;;;;;6.10;99.26;98759.25;5016533;28;20702;-80
2023/02/02 03:56:31;;;;;;;4.80;1.83;;;;;;;6.10;98.91;98759.25;5017594;28;20315;-80
2023/02/02 03:58:57;;;;;;;5.80;2.30;;;;;;;6.11;99.65;98761.78;5011944;28;20233;-80
2023/02/02 04:01:27;;;;;;;7.93;2.43;;;;;;;6.12;99.37;98766.13;5012590;28;20237;-81
2023/02/02 04:03:54;;;;;;;5.13;2.50;;;;;;;6.14;99.10;98753.81;5012588;28;20221;-79
2023/02/02 04:06:20;;;;;;;6.60;2.40;;;;;;;6.17;98.66;98756.28;5012362;28;20232;-79
2023/02/02 04:08:47;;;;;;;7.50;2.50;;;;;;;6.19;98.16;98754.47;5012102;28;20212;-80
2023/02/02 04:11:15;;;;;;;5.33;2.00;;;;;;;6.18;98.10;98765.88;5012105;28;20209;-80
2023/02/02 04:13:42;;;;;;;10.10;2.40;;;;;;;6.18;97.74;98765.03;5012372;28;20240;-81
2023/02/02 04:16:09;;;;;;;6.13;2.40;;;;;;;6.20;98.43;98768.44;5012345;28;20229;-80
2023/02/02 04:18:36;;;;;;;6.90;2.23;;;;;;;6.21;98.40;98771.00;5012506;28;20220;-81
2023/02/02 04:21:05;;;;;;;4.17;2.00;;;;;;;6.19;98.05;98762.34;5017059;28;20236;-80
2023/02/02 04:23:31;;;;;;;6.33;2.20;;;;;;;6.22;97.76;98767.44;5023045;28;20228;-79
2023/02/02 04:25:59;;;;;;;4.13;2.20;;;;;;;6.22;97.90;98785.00;5023133;28;20724;-79
2023/02/02 04:28:27;;;;;;;9.03;2.67;;;;;;;6.21;98.18;98778.88;5012893;28;20209;-81
2023/02/02 04:30:55;;;;;;;7.43;2.60;;;;;;;6.21;98.65;98781.50;5012141;28;20231;-82
2023/02/02 04:33:23;;;;;;;7.87;2.57;;;;;;;6.23;98.13;98773.56;5012242;28;20599;-82
2023/02/02 04:35:49;;;;;;;10.30;3.00;;;;;;;6.22;98.19;98787.63;5011724;28;20226;-81
2023/02/02 04:38:16;;;;;;;6.97;2.40;;;;;;;6.19;98.16;98777.22;5011625;28;20209;-81
2023/02/02 04:40:45;;;;;;;9.53;3.03;;;;;;;6.17;98.25;98774.66;5011383;28;20223;-81
2023/02/02 04:43:12;;;;;;;5.40;2.20;;;;;;;6.19;98.66;98788.59;5011861;28;20223;-80
2023/02/02 04:45:41;;;;;;;7.50;2.40;;;;;;;6.18;98.14;98789.47;5012147;28;20258;-80
2023/02/02 04:48:07;;;;;;;4.73;2.27;;;;;;;6.18;98.21;98797.34;5011707;28;20208;-81
2023/02/02 04:50:34;;;;;;;5.67;2.67;;;;;;;6.17;98.31;98795.66;5011303;28;20236;-80
2023/02/02 04:53:00;;;;;;;7.87;2.57;;;;;;;6.18;98.30;98796.53;5011610;28;20708;-79
2023/02/02 04:55:27;;;;;;;6.10;2.40;;;;;;;6.16;98.51;98793.13;5024889;23;20241;-79
2023/02/02 04:57:53;;;;;;;9.60;2.93;;;;;;;6.20;98.29;98799.94;5011050;28;20216;-79
2023/02/02 05:00:20;;;;;;;5.70;2.13;;;;;;;6.18;97.76;98807.84;5010307;28;20220;-79
2023/02/02 05:02:48;;;;;;;6.47;3.20;;;;;;;6.19;97.35;98809.59;5010934;28;20250;-79
2023/02/02 05:05:14;;;;;;;8.20;2.53;;;;;;;6.22;98.15;98808.63;5010744;28;20244;-79
2023/02/02 05:07:41;;;;;;;12.17;3.37;;;;;;;6.24;97.67;98802.34;5010717;28;20220;-79
2023/02/02 05:10:09;;;;;;;6.77;2.63;;;;;;;6.20;97.50;98810.44;5010742;28;20589;-79
2023/02/02 05:12:36;;;;;;;8.87;3.03;;;;;;;6.22;98.01;98814.69;5014661;28;20238;-82
2023/02/02 05:15:04;;;;;;;5.37;2.20;;;;;;;6.24;97.94;98828.59;5014750;28;20210;-80
2023/02/02 05:17:31;;;;;;;8.07;2.93;;;;;;;6.26;97.27;98824.16;5014707;28;20209;-78
2023/02/02 05:19:58;;;;;;;6.50;2.37;;;;;;;6.24;97.39;98822.50;5014389;28;20209;-77
2023/02/02 05:22:25;;;;;;;12.67;2.30;;;;;;;6.24;97.27;98823.34;5015125;28;20205;-79
2023/02/02 05:24:52;;;;;;;9.23;2.63;;;;;;;6.23;97.54;98821.66;5014717;28;20711;-78
2023/02/02 05:27:18;;;;;;;7.27;2.47;;;;;;;6.23;98.04;98841.81;5014923;28;20227;-78
2023/02/02 05:29:47;;;;;;;9.37;2.37;;;;;;;6.26;97.73;98837.28;5014489;28;20209;-78
2023/02/02 05:32:13;;;;;;;7.97;2.37;;;;;;;6.26;97.86;98839.91;5014423;28;20219;-79
2023/02/02 05:34:39;;;;;;;8.80;2.67;;;;;;;6.23;98.27;98837.41;5014686;28;20274;-78
2023/02/02 05:37:07;;;;;;;7.17;3.00;;;;;;;6.25;97.71;98835.59;5026826;28;20236;-78
2023/02/02 05:39:34;;;;;;;8.50;2.90;;;;;;;6.30;97.74;98827.50;5034054;28;20211;-78
2023/02/02 05:42:00;;;;;;;7.37;2.60;;;;;;;6.27;97.80;98841.63;5034235;28;20211;-80
2023/02/02 05:44:27;;;;;;;6.20;2.50;;;;;;;6.28;97.05;98840.69;5034243;28;20209;-79
2023/02/02 05:46:53;;;;;;;7.03;2.20;;;;;;;6.27;97.29;98846.00;5033912;28;20233;-79
2023/02/02 05:49:20;;;;;;;8.73;2.40;;;;;;;6.31;98.19;98840.59;5033970;28;20219;-78
2023/02/02 05:51:48;;;;;;;7.93;2.20;;;;;;;6.26;97.69;98839.91;5034279;28;20222;-80
2023/02/02 05:54:19;;;;;;;9.17;2.90;;;;;;;6.32;97.40;98831.78;5033990;28;20243;-78
2023/02/02 05:56:46;;;;;;;8.70;2.60;;;;;;;6.32;97.12;98837.03;5033670;28;20270;-78
2023/02/02 05:59:12;;;;;;;10.10;2.53;;;;;;;6.31;97.08;98835.34;5033703;28;20213;-78
2023/02/02 06:01:39;;;;;;;7.93;2.73;;;;;;;6.34;97.37;98829.94;5033661;28;20285;-79
2023/02/02 06:04:05;;;;;;;10.03;2.67;;;;;;;6.33;96.77;98836.13;5034404;28;20210;-78
2023/02/02 06:06:34;;;;;;;10.07;3.10;;;;;;;6.34;97.24;98831.72;5033978;28;20236;-79
2023/02/02 06:09:01;;;;;;;6.90;3.13;;;;;;;6.34;96.81;98829.94;5033794;28;20391;-79
2023/02/02 06:11:28;;;;;;;7.97;2.77;;;;;;;6.38;96.30;98821.03;5033815;28;20212;-79
2023/02/02 06:13:55;;;;;;;9.27;2.70;;;;;;;6.38;96.06;98835.91;5033611;28;20228;-78
2023/02/02 06:16:22;;;;;;;10.20;3.07;;;;;;;6.35;96.68;98842.16;5033519;28;20608;-78
2023/02/02 06:18:48;;;;;;;3.77;1.90;;;;;;;6.38;96.21;98842.03;5033615;28;20220;-78
2023/02/02 06:21:15;;;;;;;10.00;2.87;;;;;;;6.35;96.30;98847.41;5033277;28;20212;-78
2023/02/02 06:23:44;;;;;;;5.53;2.50;;;;;;;6.32;97.10;98855.41;5033413;28;20235;-78
2023/02/02 06:26:11;;;;;;;4.93;2.70;;;;;;;6.34;97.01;98845.69;5033565;28;20223;-78
2023/02/02 06:28:38;;;;;;;6.73;2.60;;;;;;;6.38;96.17;98844.66;5033474;28;20220;-78
2023/02/02 06:31:06;;;;;;;7.50;2.47;;;;;;;6.35;96.69;98857.91;5033370;28;20208;-78
2023/02/02 06:33:32;;;;;;;7.60;2.70;;;;;;;6.34;97.50;98879.81;5033440;28;20239;-78
2023/02/02 06:36:00;;;;;;;6.50;2.50;;;;;;;6.34;97.03;98861.44;5033299;28;20319;-78
2023/02/02 06:38:26;;;;;;;7.33;2.43;;;;;;;6.35;97.20;98863.16;5033291;28;20598;-78
2023/02/02 06:40:53;;;;;;;6.23;2.83;;;;;;;6.36;96.85;98864.84;5032944;28;20204;-78
2023/02/02 06:43:19;;;;;;;10.00;2.77;;;;;;;6.35;96.75;98868.41;5032941;28;20683;-78
2023/02/02 06:45:47;;;;;;;9.83;3.07;;;;;;;6.35;97.42;98862.31;5032916;28;20232;-78
2023/02/02 06:48:13;;;;;;;7.80;3.17;;;;;;;6.36;97.03;98859.59;5033333;28;20208;-78
2023/02/02 06:50:40;;;;;;;8.77;2.60;;;;;;;6.31;97.59;98858.09;5032781;28;20216;-78
2023/02/02 06:53:06;;;;;;;13.97;3.27;;;;;;;6.29;98.00;98866.03;5032835;28;20291;-78
2023/02/02 06:55:33;;;;;;;8.83;2.80;;;;;;;6.32;97.62;98865.06;5032759;28;20236;-78
2023/02/02 06:58:00;;;;;;;6.60;2.47;;;;;;;6.31;97.53;98872.09;5032748;28;20263;-78
2023/02/02 07:00:29;;;;;;;7.90;2.53;;;;;;;6.33;97.41;98872.00;5032370;28;20231;-78
2023/02/02 07:02:57;;;;;;;5.43;2.37;;;;;;;6.32;97.34;98873.78;5032810;28;20215;-78
2023/02/02 07:05:23;;;;;;;7.43;2.50;;;;;;;6.30;97.18;98878.22;5032615;28;20238;-78
2023/02/02 07:07:50;;;;;;;7.27;2.63;;;;;;;6.31;98.03;98865.97;5032681;28;20213;-78
2023/02/02 07:10:17;;;;;;;6.70;3.03;;;;;;;6.31;98.26;98881.72;5032370;28;20214;-78
2023/02/02 07:12:44;;;;;;;8.87;2.43;;;;;;;6.33;97.90;98869.38;5032391;28;20676;-78
2023/02/02 07:15:11;;;;;;;7.13;2.47;;;;;;;6.33;97.83;98870.25;5032371;28;20233;-78
2023/02/02 07:17:37;;;;;;;6.17;2.17;;;;;;;6.34;97.55;98871.94;5032580;28;20227;-78
2023/02/02 07:20:07;;;;;;;3.47;2.50;;;;;;;6.35;97.28;98868.41;5032007;28;20708;-78
2023/02/02 07:22:33;;;;;;;7.53;2.40;;;;;;;6.37;97.08;98871.84;5032385;28;20222;-78
2023/02/02 07:24:59;;;;;;;8.03;3.00;;;;;;;6.38;97.09;98873.53;5032193;28;20294;-78
2023/02/02 07:27:26;;;;;;;4.60;2.60;;;;;;;6.39;96.31;98880.50;5032221;28;20682;-78
2023/02/02 07:29:53;;;;;;;5.83;2.10;;;;;;;6.38;96.40;98886.66;5032112;28;20231;-78
2023/02/02 07:32:19;;;;;;;7.03;2.50;;;;;;;6.43;96.25;98882.09;5032230;28;20218;-78
2023/02/02 07:34:46;;;;;;;8.20;2.43;;;;;;;6.42;96.06;98879.53;5031384;28;20244;-78
2023/02/02 07:37:13;;;;;;;6.20;2.40;;;;;;;6.43;95.70;98889.09;5032117;28;20208;-78
2023/02/02 07:39:42;;;;;;;6.53;2.53;;;;;;;6.44;95.74;98878.53;5031630;28;20682;-78
2023/02/02 07:42:10;;;;;;;8.77;2.03;;;;;;;6.43;96.03;98895.22;5031983;28;20690;-78
2023/02/02 07:44:37;;;;;;;7.37;2.40;;;;;;;6.46;95.04;98876.69;5032145;28;20597;-78
2023/02/02 07:47:03;;;;;;;6.37;2.40;;;;;;;6.47;94.78;98874.94;5032066;28;20236;-78
2023/02/02 07:49:30;;;;;;;5.60;2.13;;;;;;;6.50;95.25;98872.16;5031562;28;20625;-82
2023/02/02 07:51:57;;;;;;;4.97;1.93;;;;;;;6.49;95.20;98863.47;5031954;28;20212;-79
2023/02/02 07:54:24;;;;;;;4.90;2.33;;;;;;;6.46;94.97;98858.31;5031841;28;20240;-84
2023/02/02 07:56:51;;;;;;;4.27;1.83;;;;;;;6.43;95.60;98853.22;5032007;28;20245;-82
2023/02/02 07:59:17;;;;;;;5.80;2.13;;;;;;;6.46;94.58;98850.44;5031827;28;20210;-82
2023/02/02 08:01:44;;;;;;;5.63;2.17;;;;;;;6.47;94.64;98856.56;5031982;28;20286;-79
2023/02/02 08:04:10;;;;;;;7.43;2.07;;;;;;;6.49;95.21;98854.72;5031724;28;20204;-81
2023/02/02 08:06:39;;;;;;;5.43;2.23;;;;;;;6.49;94.54;98866.09;5031433;28;20251;-80
2023/02/02 08:09:07;;;;;;;5.97;2.17;;;;;;;6.51;93.74;98869.50;5031416;28;20205;-80
2023/02/02 08:11:36;;;;;;;4.03;2.10;;;;;;;6.54;93.79;98866.72;5031928;28;20586;-80
2023/02/02 08:14:04;;;;;;;6.73;2.20;;;;;;;6.57;93.58;98884.13;5031603;28;20673;-81
2023/02/02 08:16:33;;;;;;;6.40;2.43;;;;;;;6.58;93.54;98877.94;5032042;28;20235;-81
2023/02/02 08:18:59;;;;;;;4.27;1.60;;;;;;;6.56;93.50;98882.44;5031111;28;20216;-82
2023/02/02 08:21:26;;;;;;;4.87;1.70;;;;;;;6.60;94.01;98899.78;5031501;28;20208;-82
2023/02/02 08:23:53;;;;;;;4.17;1.87;;;;;;;6.62;93.65;98901.44;5031628;28;20215;-84
2023/02/02 08:26:22;;;;;;;5.53;1.97;;;;;;;6.68;93.47;98913.44;5031689;28;20240;-83
2023/02/02 08:28:53;;;;;;;6.13;2.23;;;;;;;6.68;93.09;98916.94;5031493;28;20278;-83
2023/02/02 08:31:21;;;;;;;5.47;2.13;;;;;;;6.69;93.18;98921.25;5031444;28;20572;-83
2023/02/02 08:33:48;;;;;;;6.50;1.93;;;;;;;6.70;92.72;98936.09;5031221;28;20590;-82
2023/02/02 08:36:16;;;;;;;6.37;2.87;;;;;;;6.73;92.64;98938.59;5031242;28;20225;-82
2023/02/02 08:38:43;;;;;;;4.60;2.30;;;;;;;6.78;92.17;98944.50;5031079;28;20213;-80
2023/02/02 08:41:12;;;;;;;6.50;2.60;;;;;;;6.79;91.42;98948.84;5031116;28;20213;-80
2023/02/02 08:43:39;;;;;;;7.23;2.33;;;;;;;6.76;91.57;98942.84;5031207;28;20212;-84
2023/02/02 08:46:09;;;;;;;5.53;2.47;;;;;;;6.76;91.75;98946.34;5030912;28;20229;-82
2023/02/02 08:48:36;;;;;;;4.03;2.07;;;;;;;6.77;92.55;98934.94;5031203;28;20205;-82
2023/02/02 08:51:03;;;;;;;6.30;2.50;;;;;;;6.76;92.77;98943.72;5030741;28;20216;-79
2023/02/02 08:53:30;;;;;;;6.53;2.30;;;;;;;6.80;92.82;98950.56;5031031;28;20252;-79
2023/02/02 08:56:01;;;;;;;9.45;3.22;;;;;;;6.85;93.01;98953.00;5028779;28;20437;-79
2023/02/02 08:58:28;;;;;;;8.90;3.20;;;;;;;6.82;92.82;98947.88;5028865;28;20216;-79
2023/02/02 09:00:54;;;;;;;6.80;2.80;;;;;;;6.87;92.81;98952.03;5029432;28;20304;-79
2023/02/02 09:03:22;;;;;;;6.80;2.60;;;;;;;6.87;92.88;98952.03;5030025;28;20208;-78
2023/02/02 09:05:49;;;;;;;8.70;2.87;;;;;;;6.88;93.28;98952.88;5021330;28;20711;-79
2023/02/02 09:08:15;;;;;;;7.82;3.33;;;;;;;6.85;93.45;98953.84;5010238;28;20441;-80
2023/02/02 09:10:42;;;;;;;7.57;2.73;;;;;;;6.83;93.78;98955.69;5011063;28;20220;-78
2023/02/02 09:13:08;;;;;;;6.67;2.90;;;;;;;6.81;93.98;98954.91;5010388;28;20662;-78
2023/02/02 09:15:34;;;;;;;7.47;2.80;;;;;;;6.76;94.36;98969.13;5011324;28;20232;-78
2023/02/02 09:18:01;;;;;;;7.17;3.07;;;;;;;6.76;94.11;98963.88;5011373;28;20209;-78
2023/02/02 09:20:29;;;;;;;10.00;2.90;;;;;;;6.79;94.19;98954.09;5011093;28;20213;-79
2023/02/02 09:22:56;;;;;;;7.40;2.93;;;;;;;6.76;94.78;98977.88;5011411;28;20208;-79
2023/02/02 09:25:23;;;;;;;8.30;3.20;;;;;;;6.76;95.37;98975.25;5010940;28;20233;-79
2023/02/02 09:27:50;;;;;;;6.87;3.00;;;;;;;6.73;96.04;98975.38;5011113;28;20209;-79
2023/02/02 09:30:17;;;;;;;8.67;2.90;;;;;;;6.76;95.88;98963.88;5010828;28;20308;-79
2023/02/02 09:32:44;;;;;;;5.63;2.80;;;;;;;6.75;96.17;98968.28;5011108;28;20247;-80
2023/02/02 09:35:10;;;;;;;11.50;3.20;;;;;;;6.76;96.49;98964.75;5010879;28;20712;-80
2023/02/02 09:37:38;;;;;;;8.67;3.23;;;;;;;6.77;96.17;98981.38;5011197;28;20213;-80
2023/02/02 09:40:06;;;;;;;8.13;3.67;;;;;;;6.78;97.23;98983.91;5010689;28;20208;-80
2023/02/02 09:42:49;;;;;;;9.07;3.27;;;;;;;6.79;97.46;98983.00;5010963;28;20588;-79
2023/02/02 09:45:25;;;;;;;8.17;3.57;;;;;;;6.81;97.03;98994.31;5010863;28;20233;-79
2023/02/02 09:47:55;;;;;;;9.37;3.50;;;;;;;6.78;97.28;98990.97;5011132;28;20220;-80
2023/02/02 09:50:36;;;;;;;9.50;3.23;;;;;;;6.77;97.23;98992.72;5010547;28;20293;-80
2023/02/02 09:53:11;;;;;;;11.30;3.70;;;;;;;6.75;97.55;98991.94;5008475;28;20525;-79
2023/02/02 09:55:40;;;;;;;9.50;3.73;;;;;;;6.75;98.18;98999.81;5008906;28;20244;-80
2023/02/02 09:58:12;;;;;;;12.40;3.70;;;;;;;6.82;97.88;99000.41;5013474;28;20216;-80
2023/02/02 10:00:44;;;;;;;13.43;3.50;;;;;;;6.77;98.37;99008.47;5010858;28;20279;-84
2023/02/02 10:03:17;;;;;;;9.87;3.30;;;;;;;6.74;98.82;99008.63;5011571;28;20220;-84
2023/02/02 10:05:51;;;;;;;7.77;2.87;;;;;;;6.75;99.86;99005.06;5014467;28;20229;-84
2023/02/02 10:08:28;;;;;;;8.97;3.40;;;;;;;6.74;100.00;99019.13;5014379;28;20593;-81
2023/02/02 10:10:54;;;;;;;10.83;4.00;;;;;;;6.77;100.00;99019.00;5014211;28;20208;-82
2023/02/02 10:13:28;;;;;;;13.17;3.40;;;;;;;6.79;99.19;99011.91;5014174;28;20213;-82
2023/02/02 10:16:02;;;;;;;9.63;3.20;;;;;;;6.78;98.53;99019.88;5014036;28;20232;-76
2023/02/02 10:18:39;;;;;;;9.80;3.10;;;;;;;6.75;98.27;99015.59;5014428;28;20316;-81
2023/02/02 10:21:11;;;;;;;10.40;3.03;;;;;;;6.76;98.17;99017.28;5014095;28;20212;-81
2023/02/02 10:23:40;;;;;;;6.60;2.93;;;;;;;6.73;98.35;99017.41;5014271;28;20240;-81
2023/02/02 10:26:16;;;;;;;6.73;3.70;;;;;;;6.74;99.42;99013.00;5013870;28;20236;-80
2023/02/02 10:28:51;;;;;;;6.30;2.47;;;;;;;6.75;99.47;99015.59;5014005;28;20211;-81
2023/02/02 10:31:28;;;;;;;5.63;3.37;;;;;;;6.76;99.24;99006.78;5014155;28;20228;-80
2023/02/02 10:34:06;;;;;;;9.27;3.13;;;;;;;6.75;99.32;99019.97;5013855;28;20236;-81
2023/02/02 10:36:45;;;;;;;7.53;3.30;;;;;;;6.74;100.00;99013.88;5013899;28;20704;-80
2023/02/02 10:39:22;;;;;;;8.43;3.57;;;;;;;6.69;100.00;99031.59;5013766;28;20206;-80
2023/02/02 10:42:00;;;;;;;10.47;3.30;;;;;;;6.66;100.00;99036.94;5013867;28;20216;-79
2023/02/02 10:44:36;;;;;;;8.30;3.27;;;;;;;6.60;100.00;99026.69;5013639;28;20730;-82
2023/02/02 10:47:09;;;;;;;10.90;3.00;;;;;;;6.55;100.00;99039.16;5013535;28;20580;-82
2023/02/02 10:49:37;;;;;;;12.43;3.20;;;;;;;6.57;100.00;99037.31;5013346;28;20216;-82
2023/02/02 10:52:15;;;;;;;7.97;2.80;;;;;;;6.59;100.00;99040.72;5013607;28;20629;-80
2023/02/02 10:54:56;;;;;;;7.70;3.13;;;;;;;6.61;100.00;99028.41;5012790;28;20339;-80
2023/02/02 10:57:33;;;;;;;7.13;3.20;;;;;;;6.69;100.00;99009.72;5041860;23;20247;-79
2023/02/02 11:00:09;;;;;;;6.87;2.90;;;;;;;6.74;100.00;99018.25;5032572;28;20212;-79
2023/02/02 11:02:35;;;;;;;6.70;2.83;;;;;;;6.77;100.00;99024.25;5033593;28;20219;-79
2023/02/02 11:07:45;;;;;;;5.30;2.43;;;;;;;6.91;100.00;99010.56;5032936;28;20780;-79
2023/02/02 11:10:13;;;;;;;8.50;2.47;;;;;;;6.97;100.00;99013.78;5032178;28;20212;-79
2023/02/02 11:12:45;;;;;;;9.13;2.97;;;;;;;6.97;99.74;99011.16;5033161;28;20215;-80
2023/02/02 11:15:25;;;;;;;9.17;3.40;;;;;;;7.03;97.66;99007.44;5033040;28;20241;-78
2023/02/02 11:17:52;;;;;;;6.57;3.13;;;;;;;7.06;97.33;98995.03;5033112;28;20207;-79
2023/02/02 11:20:24;;;;;;;8.17;3.10;;;;;;;7.10;97.01;99006.25;5032824;28;20215;-79
2023/02/02 11:23:00;;;;;;;9.30;3.03;;;;;;;7.11;96.73;98994.81;5032922;28;20255;-79
2023/02/02 11:25:32;;;;;;;6.20;3.60;;;;;;;7.14;96.71;98990.28;5032850;28;20200;-76
2023/02/02 11:28:01;;;;;;;5.17;1.90;;;;;;;7.15;96.40;98984.09;5032795;28;20205;-77
2023/02/02 11:30:32;;;;;;;5.33;2.67;;;;;;;7.18;96.35;98997.97;5032479;28;20205;-76
2023/02/02 11:32:59;;;;;;;6.80;3.10;;;;;;;7.20;95.95;98997.91;5032477;28;20204;-78
2023/02/02 11:35:28;;;;;;;5.57;2.20;;;;;;;7.24;95.80;98991.63;5032363;28;20252;-77
2023/02/02 11:37:58;;;;;;;8.60;2.40;;;;;;;7.21;97.57;98994.38;5032715;28;20208;-76
2023/02/02 11:40:32;;;;;;;6.83;2.13;;;;;;;7.18;97.04;98989.25;5032466;28;20693;-77
2023/02/02 11:43:02;;;;;;;6.97;2.20;;;;;;;7.20;96.29;98986.56;5032627;28;20226;-79
2023/02/02 11:45:34;;;;;;;5.87;2.10;;;;;;;7.18;97.54;98991.00;5032614;28;20208;-78
2023/02/02 11:48:04;;;;;;;6.30;2.53;;;;;;;7.12;96.41;98994.75;5032688;28;20301;-78
2023/02/02 11:50:31;;;;;;;4.30;2.20;;;;;;;7.10;97.52;98990.50;5032071;28;20219;-78
2023/02/02 11:52:58;;;;;;;7.70;2.10;;;;;;;7.07;97.14;98991.47;5031421;28;20209;-79
2023/02/02 11:55:28;;;;;;;6.40;2.17;;;;;;;7.08;97.29;98993.19;5032060;28;20235;-79
2023/02/02 11:58:18;;;;;;;6.00;2.43;;;;;;;7.01;97.39;98986.47;5030383;28;20238;-80
2023/02/02 12:00:49;;;;;;;8.03;2.40;;;;;;;7.07;96.94;98986.22;5029488;28;20213;-77